sensor_id;sensor_type;location;lat;lon;timestamp;P1;durP1;ratioP1;P2;durP2;ratioP2
24735;SDS011;12840;48.144;17.136;2023-03-02T00:02:14;38.90;;;19.70;;
24735;SDS011;12840;48.144;17.136;2023-03-02T00:04:44;37.00;;;19.10;;
24735;SDS011;12840;48.144;17.136;2023-03-02T00:07:13;42.93;;;20.20;;
24735;SDS011;12840;48.144;17.136;2023-03-02T00:09:42;38.60;;;19.37;;
24735;SDS011;12840;48.144;17.136;2023-03-02T00:12:10;42.43;;;19.70;;
24735;SDS011;12840;48.144;17.136;2023-03-02T00:14:37;36.53;;;17.97;;
24735;SDS011;12840;48.144;17.136;2023-03-02T00:17:05;39.40;;;19.47;;
24735;SDS011;12840;48.144;17.136;2023-03-02T00:19:36;35.57;;;18.33;;
24735;SDS011;12840;48.144;17.136;2023-03-02T00:22:03;35.63;;;18.43;;
24735;SDS011;12840;48.144;17.136;2023-03-02T00:24:31;40.33;;;20.73;;
24735;SDS011;12840;48.144;17.136;2023-03-02T00:26:58;42.10;;;20.37;;
24735;SDS011;12840;48.144;17.136;2023-03-02T00:29:26;40.97;;;19.97;;
24735;SDS011;12840;48.144;17.136;2023-03-02T00:31:54;40.73;;;19.90;;
24735;SDS011;12840;48.144;17.136;2023-03-02T00:34:21;41.33;;;19.53;;
24735;SDS011;12840;48.144;17.136;2023-03-02T00:36:50;42.47;;;20.60;;
24735;SDS011;12840;48.144;17.136;2023-03-02T00:39:18;37.87;;;19.33;;
24735;SDS011;12840;48.144;17.136;2023-03-02T00:41:45;40.17;;;19.87;;
24735;SDS011;12840;48.144;17.136;2023-03-02T00:44:14;38.83;;;19.87;;
24735;SDS011;12840;48.144;17.136;2023-03-02T00:46:42;42.60;;;20.90;;
24735;SDS011;12840;48.144;17.136;2023-03-02T00:49:10;39.63;;;19.97;;
24735;SDS011;12840;48.144;17.136;2023-03-02T00:51:38;37.63;;;19.63;;
24735;SDS011;12840;48.144;17.136;2023-03-02T00:54:07;41.57;;;20.53;;
24735;SDS011;12840;48.144;17.136;2023-03-02T00:56:34;39.63;;;19.80;;
24735;SDS011;12840;48.144;17.136;2023-03-02T00:59:05;41.23;;;19.00;;
24735;SDS011;12840;48.144;17.136;2023-03-02T01:01:50;42.47;;;19.53;;
24735;SDS011;12840;48.144;17.136;2023-03-02T01:04:22;38.17;;;19.27;;
24735;SDS011;12840;48.144;17.136;2023-03-02T01:06:54;43.80;;;20.60;;
24735;SDS011;12840;48.144;17.136;2023-03-02T01:09:23;40.10;;;19.90;;
24735;SDS011;12840;48.144;17.136;2023-03-02T01:11:50;40.43;;;20.10;;
24735;SDS011;12840;48.144;17.136;2023-03-02T01:14:18;40.77;;;20.23;;
24735;SDS011;12840;48.144;17.136;2023-03-02T01:16:46;42.07;;;20.47;;
24735;SDS011;12840;48.144;17.136;2023-03-02T01:19:13;38.00;;;19.23;;
24735;SDS011;12840;48.144;17.136;2023-03-02T01:21:41;43.60;;;19.83;;
24735;SDS011;12840;48.144;17.136;2023-03-02T01:24:09;41.87;;;20.27;;
24735;SDS011;12840;48.144;17.136;2023-03-02T01:26:38;44.93;;;21.23;;
24735;SDS011;12840;48.144;17.136;2023-03-02T01:29:08;42.53;;;21.53;;
24735;SDS011;12840;48.144;17.136;2023-03-02T01:31:36;41.87;;;20.47;;
24735;SDS011;12840;48.144;17.136;2023-03-02T01:34:04;46.17;;;21.03;;
24735;SDS011;12840;48.144;17.136;2023-03-02T01:36:32;42.80;;;21.20;;
24735;SDS011;12840;48.144;17.136;2023-03-02T01:38:59;44.10;;;21.83;;
24735;SDS011;12840;48.144;17.136;2023-03-02T01:41:27;47.00;;;21.20;;
24735;SDS011;12840;48.144;17.136;2023-03-02T01:43:56;40.83;;;20.73;;
24735;SDS011;12840;48.144;17.136;2023-03-02T01:46:24;41.17;;;20.70;;
24735;SDS011;12840;48.144;17.136;2023-03-02T01:48:53;44.57;;;21.17;;
24735;SDS011;12840;48.144;17.136;2023-03-02T01:51:24;46.13;;;21.30;;
24735;SDS011;12840;48.144;17.136;2023-03-02T01:53:52;45.67;;;21.80;;
24735;SDS011;12840;48.144;17.136;2023-03-02T01:56:21;44.97;;;21.20;;
24735;SDS011;12840;48.144;17.136;2023-03-02T01:58:51;45.17;;;21.33;;
24735;SDS011;12840;48.144;17.136;2023-03-02T02:01:20;44.73;;;21.70;;
24735;SDS011;12840;48.144;17.136;2023-03-02T02:03:49;44.97;;;22.90;;
24735;SDS011;12840;48.144;17.136;2023-03-02T02:06:18;43.43;;;21.90;;
24735;SDS011;12840;48.144;17.136;2023-03-02T02:08:47;44.53;;;21.53;;
24735;SDS011;12840;48.144;17.136;2023-03-02T02:11:15;48.37;;;21.83;;
24735;SDS011;12840;48.144;17.136;2023-03-02T02:13:43;48.70;;;22.43;;
24735;SDS011;12840;48.144;17.136;2023-03-02T02:16:10;41.73;;;22.10;;
24735;SDS011;12840;48.144;17.136;2023-03-02T02:18:40;45.13;;;22.57;;
24735;SDS011;12840;48.144;17.136;2023-03-02T02:21:08;44.23;;;21.10;;
24735;SDS011;12840;48.144;17.136;2023-03-02T02:23:37;44.97;;;22.23;;
24735;SDS011;12840;48.144;17.136;2023-03-02T02:26:09;46.80;;;22.30;;
24735;SDS011;12840;48.144;17.136;2023-03-02T02:28:38;46.73;;;22.57;;
24735;SDS011;12840;48.144;17.136;2023-03-02T02:31:08;43.77;;;21.43;;
24735;SDS011;12840;48.144;17.136;2023-03-02T02:33:39;44.43;;;22.63;;
24735;SDS011;12840;48.144;17.136;2023-03-02T02:36:09;48.67;;;22.77;;
24735;SDS011;12840;48.144;17.136;2023-03-02T02:38:39;52.67;;;23.83;;
24735;SDS011;12840;48.144;17.136;2023-03-02T02:41:10;46.40;;;22.77;;
24735;SDS011;12840;48.144;17.136;2023-03-02T02:43:39;45.53;;;22.73;;
24735;SDS011;12840;48.144;17.136;2023-03-02T02:46:07;45.77;;;23.03;;
24735;SDS011;12840;48.144;17.136;2023-03-02T02:48:45;45.03;;;22.90;;
24735;SDS011;12840;48.144;17.136;2023-03-02T02:51:15;48.47;;;22.97;;
24735;SDS011;12840;48.144;17.136;2023-03-02T02:53:46;47.10;;;22.77;;
24735;SDS011;12840;48.144;17.136;2023-03-02T02:56:15;51.13;;;23.53;;
24735;SDS011;12840;48.144;17.136;2023-03-02T02:58:44;51.03;;;23.77;;
24735;SDS011;12840;48.144;17.136;2023-03-02T03:01:13;45.13;;;22.77;;
24735;SDS011;12840;48.144;17.136;2023-03-02T03:03:42;45.83;;;22.73;;
24735;SDS011;12840;48.144;17.136;2023-03-02T03:06:12;54.77;;;25.63;;
24735;SDS011;12840;48.144;17.136;2023-03-02T03:08:52;54.63;;;25.43;;
24735;SDS011;12840;48.144;17.136;2023-03-02T03:11:22;56.80;;;26.03;;
24735;SDS011;12840;48.144;17.136;2023-03-02T03:13:52;55.37;;;25.60;;
24735;SDS011;12840;48.144;17.136;2023-03-02T03:16:20;50.90;;;25.07;;
24735;SDS011;12840;48.144;17.136;2023-03-02T03:18:48;51.70;;;24.87;;
24735;SDS011;12840;48.144;17.136;2023-03-02T03:21:17;56.27;;;25.43;;
24735;SDS011;12840;48.144;17.136;2023-03-02T03:23:44;54.23;;;25.57;;
24735;SDS011;12840;48.144;17.136;2023-03-02T03:26:13;55.40;;;26.90;;
24735;SDS011;12840;48.144;17.136;2023-03-02T03:28:42;59.07;;;28.00;;
24735;SDS011;12840;48.144;17.136;2023-03-02T03:31:09;61.10;;;28.97;;
24735;SDS011;12840;48.144;17.136;2023-03-02T03:33:37;69.23;;;29.10;;
24735;SDS011;12840;48.144;17.136;2023-03-02T03:36:04;62.60;;;29.43;;
24735;SDS011;12840;48.144;17.136;2023-03-02T03:38:33;64.10;;;28.87;;
24735;SDS011;12840;48.144;17.136;2023-03-02T03:41:00;64.30;;;28.70;;
24735;SDS011;12840;48.144;17.136;2023-03-02T03:43:28;65.20;;;29.07;;
24735;SDS011;12840;48.144;17.136;2023-03-02T03:45:57;69.33;;;30.77;;
24735;SDS011;12840;48.144;17.136;2023-03-02T03:48:25;65.63;;;29.57;;
24735;SDS011;12840;48.144;17.136;2023-03-02T03:50:52;69.67;;;31.03;;
24735;SDS011;12840;48.144;17.136;2023-03-02T03:53:20;67.77;;;31.10;;
24735;SDS011;12840;48.144;17.136;2023-03-02T03:55:47;74.43;;;31.87;;
24735;SDS011;12840;48.144;17.136;2023-03-02T03:58:15;66.73;;;31.17;;
24735;SDS011;12840;48.144;17.136;2023-03-02T04:00:42;69.17;;;31.03;;
24735;SDS011;12840;48.144;17.136;2023-03-02T04:03:13;71.20;;;32.57;;
24735;SDS011;12840;48.144;17.136;2023-03-02T04:05:40;66.40;;;30.37;;
24735;SDS011;12840;48.144;17.136;2023-03-02T04:08:08;68.37;;;32.70;;
24735;SDS011;12840;48.144;17.136;2023-03-02T04:10:36;67.83;;;32.20;;
24735;SDS011;12840;48.144;17.136;2023-03-02T04:13:03;67.20;;;30.47;;
24735;SDS011;12840;48.144;17.136;2023-03-02T04:15:31;62.97;;;27.80;;
24735;SDS011;12840;48.144;17.136;2023-03-02T04:17:58;61.77;;;28.23;;
24735;SDS011;12840;48.144;17.136;2023-03-02T04:20:27;62.57;;;26.83;;
24735;SDS011;12840;48.144;17.136;2023-03-02T04:22:55;60.87;;;26.53;;
24735;SDS011;12840;48.144;17.136;2023-03-02T04:25:24;52.67;;;24.10;;
24735;SDS011;12840;48.144;17.136;2023-03-02T04:27:52;49.40;;;24.10;;
24735;SDS011;12840;48.144;17.136;2023-03-02T04:30:21;53.80;;;24.30;;
24735;SDS011;12840;48.144;17.136;2023-03-02T04:32:48;67.03;;;29.90;;
24735;SDS011;12840;48.144;17.136;2023-03-02T04:35:16;65.20;;;30.23;;
24735;SDS011;12840;48.144;17.136;2023-03-02T04:37:45;63.43;;;30.00;;
24735;SDS011;12840;48.144;17.136;2023-03-02T04:40:13;66.50;;;29.73;;
24735;SDS011;12840;48.144;17.136;2023-03-02T04:42:41;71.60;;;31.87;;
24735;SDS011;12840;48.144;17.136;2023-03-02T04:45:09;65.47;;;30.13;;
24735;SDS011;12840;48.144;17.136;2023-03-02T04:47:37;67.33;;;30.97;;
24735;SDS011;12840;48.144;17.136;2023-03-02T04:50:05;66.13;;;29.73;;
24735;SDS011;12840;48.144;17.136;2023-03-02T04:52:32;72.70;;;31.93;;
24735;SDS011;12840;48.144;17.136;2023-03-02T04:55:01;74.17;;;32.20;;
24735;SDS011;12840;48.144;17.136;2023-03-02T04:57:29;70.43;;;32.80;;
24735;SDS011;12840;48.144;17.136;2023-03-02T04:59:56;77.13;;;32.53;;
24735;SDS011;12840;48.144;17.136;2023-03-02T05:02:24;73.27;;;31.90;;
24735;SDS011;12840;48.144;17.136;2023-03-02T05:04:51;73.40;;;32.93;;
24735;SDS011;12840;48.144;17.136;2023-03-02T05:07:19;77.90;;;32.10;;
24735;SDS011;12840;48.144;17.136;2023-03-02T05:09:46;78.03;;;31.90;;
24735;SDS011;12840;48.144;17.136;2023-03-02T05:12:15;72.57;;;33.83;;
24735;SDS011;12840;48.144;17.136;2023-03-02T05:14:43;71.23;;;32.37;;
24735;SDS011;12840;48.144;17.136;2023-03-02T05:17:10;77.57;;;32.67;;
24735;SDS011;12840;48.144;17.136;2023-03-02T05:19:38;76.07;;;32.43;;
24735;SDS011;12840;48.144;17.136;2023-03-02T05:22:05;73.77;;;33.60;;
24735;SDS011;12840;48.144;17.136;2023-03-02T05:24:33;77.00;;;33.27;;
24735;SDS011;12840;48.144;17.136;2023-03-02T05:27:01;77.13;;;33.27;;
24735;SDS011;12840;48.144;17.136;2023-03-02T05:29:30;79.83;;;33.10;;
24735;SDS011;12840;48.144;17.136;2023-03-02T05:31:58;80.23;;;34.53;;
24735;SDS011;12840;48.144;17.136;2023-03-02T05:34:25;90.13;;;35.33;;
24735;SDS011;12840;48.144;17.136;2023-03-02T05:36:53;82.03;;;34.93;;
24735;SDS011;12840;48.144;17.136;2023-03-02T05:39:22;78.83;;;35.03;;
24735;SDS011;12840;48.144;17.136;2023-03-02T05:41:49;78.40;;;34.47;;
24735;SDS011;12840;48.144;17.136;2023-03-02T05:44:17;87.43;;;34.50;;
24735;SDS011;12840;48.144;17.136;2023-03-02T05:46:46;74.70;;;34.17;;
24735;SDS011;12840;48.144;17.136;2023-03-02T05:49:14;78.87;;;35.17;;
24735;SDS011;12840;48.144;17.136;2023-03-02T05:51:41;79.13;;;32.70;;
24735;SDS011;12840;48.144;17.136;2023-03-02T05:54:09;79.93;;;34.10;;
24735;SDS011;12840;48.144;17.136;2023-03-02T05:56:37;76.27;;;34.50;;
24735;SDS011;12840;48.144;17.136;2023-03-02T05:59:04;81.20;;;34.23;;
24735;SDS011;12840;48.144;17.136;2023-03-02T06:01:31;77.00;;;34.00;;
24735;SDS011;12840;48.144;17.136;2023-03-02T06:04:02;77.33;;;34.20;;
24735;SDS011;12840;48.144;17.136;2023-03-02T06:06:30;74.17;;;33.90;;
24735;SDS011;12840;48.144;17.136;2023-03-02T06:08:57;74.43;;;32.80;;
24735;SDS011;12840;48.144;17.136;2023-03-02T06:11:25;71.40;;;33.73;;
24735;SDS011;12840;48.144;17.136;2023-03-02T06:13:54;73.70;;;33.73;;
24735;SDS011;12840;48.144;17.136;2023-03-02T06:16:21;83.50;;;33.37;;
24735;SDS011;12840;48.144;17.136;2023-03-02T06:18:49;73.90;;;33.23;;
24735;SDS011;12840;48.144;17.136;2023-03-02T06:21:18;72.33;;;31.53;;
24735;SDS011;12840;48.144;17.136;2023-03-02T06:23:45;81.40;;;33.43;;
24735;SDS011;12840;48.144;17.136;2023-03-02T06:26:13;70.43;;;31.20;;
24735;SDS011;12840;48.144;17.136;2023-03-02T06:28:40;69.07;;;31.57;;
24735;SDS011;12840;48.144;17.136;2023-03-02T06:31:08;62.53;;;30.60;;
24735;SDS011;12840;48.144;17.136;2023-03-02T06:33:35;75.20;;;30.60;;
24735;SDS011;12840;48.144;17.136;2023-03-02T06:36:04;66.50;;;30.40;;
24735;SDS011;12840;48.144;17.136;2023-03-02T06:38:33;63.47;;;30.23;;
24735;SDS011;12840;48.144;17.136;2023-03-02T06:41:00;67.07;;;30.07;;
24735;SDS011;12840;48.144;17.136;2023-03-02T06:43:28;70.50;;;29.83;;
24735;SDS011;12840;48.144;17.136;2023-03-02T06:45:56;72.33;;;32.47;;
24735;SDS011;12840;48.144;17.136;2023-03-02T06:48:24;67.87;;;31.20;;
24735;SDS011;12840;48.144;17.136;2023-03-02T06:50:52;72.00;;;32.20;;
24735;SDS011;12840;48.144;17.136;2023-03-02T06:53:19;66.13;;;28.83;;
24735;SDS011;12840;48.144;17.136;2023-03-02T06:55:49;67.03;;;30.20;;
24735;SDS011;12840;48.144;17.136;2023-03-02T06:58:16;70.60;;;30.60;;
24735;SDS011;12840;48.144;17.136;2023-03-02T07:00:44;65.43;;;29.90;;
24735;SDS011;12840;48.144;17.136;2023-03-02T07:03:11;51.87;;;26.13;;
24735;SDS011;12840;48.144;17.136;2023-03-02T07:05:39;44.07;;;21.13;;
24735;SDS011;12840;48.144;17.136;2023-03-02T07:08:06;36.83;;;19.47;;
24735;SDS011;12840;48.144;17.136;2023-03-02T07:10:35;36.57;;;20.03;;
24735;SDS011;12840;48.144;17.136;2023-03-02T07:13:04;35.77;;;20.03;;
24735;SDS011;12840;48.144;17.136;2023-03-02T07:15:31;35.50;;;20.27;;
24735;SDS011;12840;48.144;17.136;2023-03-02T07:17:59;33.08;;;20.52;;
24735;SDS011;12840;48.144;17.136;2023-03-02T07:20:26;40.17;;;22.38;;
24735;SDS011;12840;48.144;17.136;2023-03-02T07:22:55;33.75;;;20.65;;
24735;SDS011;12840;48.144;17.136;2023-03-02T07:25:22;32.65;;;20.83;;
24735;SDS011;12840;48.144;17.136;2023-03-02T07:27:50;39.00;;;20.58;;
24735;SDS011;12840;48.144;17.136;2023-03-02T07:30:19;34.55;;;20.50;;
24735;SDS011;12840;48.144;17.136;2023-03-02T07:32:47;32.95;;;21.52;;
24735;SDS011;12840;48.144;17.136;2023-03-02T07:35:14;33.55;;;20.90;;
24735;SDS011;12840;48.144;17.136;2023-03-02T07:37:42;32.58;;;21.85;;
24735;SDS011;12840;48.144;17.136;2023-03-02T07:40:10;35.55;;;21.75;;
24735;SDS011;12840;48.144;17.136;2023-03-02T07:42:38;33.93;;;21.50;;
24735;SDS011;12840;48.144;17.136;2023-03-02T07:45:06;33.93;;;20.03;;
24735;SDS011;12840;48.144;17.136;2023-03-02T07:47:35;35.47;;;21.47;;
24735;SDS011;12840;48.144;17.136;2023-03-02T07:50:02;34.80;;;21.13;;
24735;SDS011;12840;48.144;17.136;2023-03-02T07:52:30;35.23;;;21.10;;
24735;SDS011;12840;48.144;17.136;2023-03-02T07:54:58;36.23;;;21.13;;
24735;SDS011;12840;48.144;17.136;2023-03-02T07:57:25;36.00;;;20.47;;
24735;SDS011;12840;48.144;17.136;2023-03-02T07:59:53;34.07;;;20.70;;
24735;SDS011;12840;48.144;17.136;2023-03-02T08:02:20;33.20;;;20.60;;
24735;SDS011;12840;48.144;17.136;2023-03-02T08:04:51;32.13;;;19.93;;
24735;SDS011;12840;48.144;17.136;2023-03-02T08:07:18;36.33;;;20.00;;
24735;SDS011;12840;48.144;17.136;2023-03-02T08:09:46;34.10;;;20.57;;
24735;SDS011;12840;48.144;17.136;2023-03-02T08:12:13;31.67;;;20.10;;
24735;SDS011;12840;48.144;17.136;2023-03-02T08:14:41;31.57;;;19.37;;
24735;SDS011;12840;48.144;17.136;2023-03-02T08:17:08;31.60;;;19.77;;
24735;SDS011;12840;48.144;17.136;2023-03-02T08:19:36;34.07;;;19.27;;
24735;SDS011;12840;48.144;17.136;2023-03-02T08:22:05;33.50;;;19.37;;
24735;SDS011;12840;48.144;17.136;2023-03-02T08:24:32;31.63;;;18.47;;
24735;SDS011;12840;48.144;17.136;2023-03-02T08:27:00;31.23;;;18.37;;
24735;SDS011;12840;48.144;17.136;2023-03-02T08:29:27;32.80;;;18.80;;
24735;SDS011;12840;48.144;17.136;2023-03-02T08:31:55;31.07;;;18.43;;
24735;SDS011;12840;48.144;17.136;2023-03-02T08:34:23;32.20;;;16.97;;
24735;SDS011;12840;48.144;17.136;2023-03-02T08:36:51;33.33;;;18.00;;
24735;SDS011;12840;48.144;17.136;2023-03-02T08:39:20;37.10;;;19.50;;
24735;SDS011;12840;48.144;17.136;2023-03-02T08:41:48;33.93;;;19.10;;
24735;SDS011;12840;48.144;17.136;2023-03-02T08:44:16;31.30;;;18.73;;
24735;SDS011;12840;48.144;17.136;2023-03-02T08:46:45;30.47;;;17.97;;
24735;SDS011;12840;48.144;17.136;2023-03-02T08:49:13;32.47;;;19.07;;
24735;SDS011;12840;48.144;17.136;2023-03-02T08:51:40;33.53;;;18.53;;
24735;SDS011;12840;48.144;17.136;2023-03-02T08:54:08;30.67;;;17.70;;
24735;SDS011;12840;48.144;17.136;2023-03-02T08:56:37;30.80;;;17.50;;
24735;SDS011;12840;48.144;17.136;2023-03-02T08:59:06;31.97;;;18.37;;
24735;SDS011;12840;48.144;17.136;2023-03-02T09:01:34;35.73;;;19.00;;
24735;SDS011;12840;48.144;17.136;2023-03-02T09:04:02;34.40;;;19.37;;
24735;SDS011;12840;48.144;17.136;2023-03-02T09:06:31;33.53;;;19.17;;
24735;SDS011;12840;48.144;17.136;2023-03-02T09:08:59;34.07;;;18.60;;
24735;SDS011;12840;48.144;17.136;2023-03-02T09:11:26;30.77;;;17.73;;
24735;SDS011;12840;48.144;17.136;2023-03-02T09:13:55;30.53;;;18.67;;
24735;SDS011;12840;48.144;17.136;2023-03-02T09:16:23;35.23;;;18.67;;
24735;SDS011;12840;48.144;17.136;2023-03-02T09:18:50;29.63;;;16.67;;
24735;SDS011;12840;48.144;17.136;2023-03-02T09:21:18;32.90;;;17.47;;
24735;SDS011;12840;48.144;17.136;2023-03-02T09:23:46;30.50;;;18.10;;
24735;SDS011;12840;48.144;17.136;2023-03-02T09:26:18;35.80;;;18.77;;
24735;SDS011;12840;48.144;17.136;2023-03-02T09:28:45;34.00;;;20.43;;
24735;SDS011;12840;48.144;17.136;2023-03-02T09:31:14;29.30;;;19.30;;
24735;SDS011;12840;48.144;17.136;2023-03-02T09:33:42;32.30;;;20.30;;
24735;SDS011;12840;48.144;17.136;2023-03-02T09:36:10;33.13;;;21.43;;
24735;SDS011;12840;48.144;17.136;2023-03-02T09:38:38;32.07;;;20.97;;
24735;SDS011;12840;48.144;17.136;2023-03-02T09:41:11;33.70;;;21.30;;
24735;SDS011;12840;48.144;17.136;2023-03-02T09:43:42;28.47;;;19.87;;
24735;SDS011;12840;48.144;17.136;2023-03-02T09:46:15;28.80;;;19.27;;
24735;SDS011;12840;48.144;17.136;2023-03-02T09:48:46;29.08;;;19.40;;
24735;SDS011;12840;48.144;17.136;2023-03-02T09:51:20;35.03;;;20.02;;
24735;SDS011;12840;48.144;17.136;2023-03-02T09:53:50;26.73;;;18.25;;
24735;SDS011;12840;48.144;17.136;2023-03-02T09:56:19;29.40;;;19.73;;
24735;SDS011;12840;48.144;17.136;2023-03-02T09:58:48;27.73;;;16.95;;
24735;SDS011;12840;48.144;17.136;2023-03-02T10:01:21;26.70;;;17.25;;
24735;SDS011;12840;48.144;17.136;2023-03-02T10:03:56;26.90;;;16.73;;
24735;SDS011;12840;48.144;17.136;2023-03-02T10:06:24;25.27;;;16.40;;
24735;SDS011;12840;48.144;17.136;2023-03-02T10:08:51;27.63;;;17.02;;
24735;SDS011;12840;48.144;17.136;2023-03-02T10:11:21;25.20;;;16.67;;
24735;SDS011;12840;48.144;17.136;2023-03-02T10:13:54;25.38;;;16.42;;
24735;SDS011;12840;48.144;17.136;2023-03-02T10:16:28;22.48;;;15.65;;
24735;SDS011;12840;48.144;17.136;2023-03-02T10:19:00;21.20;;;15.90;;
24735;SDS011;12840;48.144;17.136;2023-03-02T10:21:30;24.50;;;15.43;;
24735;SDS011;12840;48.144;17.136;2023-03-02T10:24:00;20.98;;;15.57;;
24735;SDS011;12840;48.144;17.136;2023-03-02T10:26:33;21.40;;;15.57;;
24735;SDS011;12840;48.144;17.136;2023-03-02T10:29:04;19.17;;;14.18;;
24735;SDS011;12840;48.144;17.136;2023-03-02T10:31:38;23.20;;;14.40;;
24735;SDS011;12840;48.144;17.136;2023-03-02T10:34:07;19.50;;;13.70;;
24735;SDS011;12840;48.144;17.136;2023-03-02T10:36:37;19.45;;;13.50;;
24735;SDS011;12840;48.144;17.136;2023-03-02T10:39:06;18.02;;;13.30;;
24735;SDS011;12840;48.144;17.136;2023-03-02T10:41:35;17.63;;;13.32;;
24735;SDS011;12840;48.144;17.136;2023-03-02T10:44:05;18.67;;;13.32;;
24735;SDS011;12840;48.144;17.136;2023-03-02T10:46:39;16.45;;;12.10;;
24735;SDS011;12840;48.144;17.136;2023-03-02T10:49:20;16.52;;;12.15;;
24735;SDS011;12840;48.144;17.136;2023-03-02T10:51:54;17.58;;;12.00;;
24735;SDS011;12840;48.144;17.136;2023-03-02T10:54:21;20.48;;;13.18;;
24735;SDS011;12840;48.144;17.136;2023-03-02T10:56:51;19.23;;;12.77;;
24735;SDS011;12840;48.144;17.136;2023-03-02T10:59:30;18.17;;;12.05;;
24735;SDS011;12840;48.144;17.136;2023-03-02T11:02:00;16.98;;;11.60;;
24735;SDS011;12840;48.144;17.136;2023-03-02T11:04:28;18.02;;;12.00;;
24735;SDS011;12840;48.144;17.136;2023-03-02T11:07:05;18.42;;;11.43;;
24735;SDS011;12840;48.144;17.136;2023-03-02T11:09:33;18.60;;;11.70;;
24735;SDS011;12840;48.144;17.136;2023-03-02T11:12:00;17.77;;;10.30;;
24735;SDS011;12840;48.144;17.136;2023-03-02T11:14:28;16.40;;;10.60;;
24735;SDS011;12840;48.144;17.136;2023-03-02T11:16:55;16.20;;;11.18;;
24735;SDS011;12840;48.144;17.136;2023-03-02T11:19:27;17.50;;;10.50;;
24735;SDS011;12840;48.144;17.136;2023-03-02T11:21:57;16.10;;;10.27;;
24735;SDS011;12840;48.144;17.136;2023-03-02T11:24:27;16.77;;;10.43;;
24735;SDS011;12840;48.144;17.136;2023-03-02T11:26:58;19.58;;;11.32;;
24735;SDS011;12840;48.144;17.136;2023-03-02T11:29:28;21.50;;;12.07;;
24735;SDS011;12840;48.144;17.136;2023-03-02T11:31:57;16.73;;;10.80;;
24735;SDS011;12840;48.144;17.136;2023-03-02T11:34:29;19.87;;;11.17;;
24735;SDS011;12840;48.144;17.136;2023-03-02T11:37:00;18.07;;;10.60;;
24735;SDS011;12840;48.144;17.136;2023-03-02T11:39:32;18.07;;;10.60;;
24735;SDS011;12840;48.144;17.136;2023-03-02T11:42:07;22.20;;;13.97;;
24735;SDS011;12840;48.144;17.136;2023-03-02T11:44:41;17.40;;;9.90;;
24735;SDS011;12840;48.144;17.136;2023-03-02T11:47:09;16.33;;;10.07;;
24735;SDS011;12840;48.144;17.136;2023-03-02T11:49:41;17.93;;;9.70;;
24735;SDS011;12840;48.144;17.136;2023-03-02T11:52:13;15.80;;;8.80;;
24735;SDS011;12840;48.144;17.136;2023-03-02T11:54:43;15.47;;;9.60;;
24735;SDS011;12840;48.144;17.136;2023-03-02T11:57:15;16.43;;;9.83;;
24735;SDS011;12840;48.144;17.136;2023-03-02T11:59:44;14.60;;;9.07;;
24735;SDS011;12840;48.144;17.136;2023-03-02T12:02:12;16.77;;;9.67;;
24735;SDS011;12840;48.144;17.136;2023-03-02T12:04:41;24.47;;;10.97;;
24735;SDS011;12840;48.144;17.136;2023-03-02T12:07:16;16.90;;;10.03;;
24735;SDS011;12840;48.144;17.136;2023-03-02T12:09:43;19.87;;;9.67;;
24735;SDS011;12840;48.144;17.136;2023-03-02T12:12:18;18.60;;;10.20;;
24735;SDS011;12840;48.144;17.136;2023-03-02T12:14:52;17.57;;;10.73;;
24735;SDS011;12840;48.144;17.136;2023-03-02T12:17:28;14.57;;;8.70;;
24735;SDS011;12840;48.144;17.136;2023-03-02T12:20:08;16.20;;;8.87;;
24735;SDS011;12840;48.144;17.136;2023-03-02T12:22:36;14.80;;;8.27;;
24735;SDS011;12840;48.144;17.136;2023-03-02T12:25:06;15.10;;;9.10;;
24735;SDS011;12840;48.144;17.136;2023-03-02T12:27:51;16.07;;;9.67;;
24735;SDS011;12840;48.144;17.136;2023-03-02T12:30:20;14.37;;;9.20;;
24735;SDS011;12840;48.144;17.136;2023-03-02T12:33:01;18.03;;;9.97;;
24735;SDS011;12840;48.144;17.136;2023-03-02T12:35:32;17.40;;;10.23;;
24735;SDS011;12840;48.144;17.136;2023-03-02T12:38:00;16.67;;;10.00;;
24735;SDS011;12840;48.144;17.136;2023-03-02T12:40:45;21.40;;;9.53;;
24735;SDS011;12840;48.144;17.136;2023-03-02T12:43:19;17.23;;;9.47;;
24735;SDS011;12840;48.144;17.136;2023-03-02T12:48:36;20.70;;;10.53;;
24735;SDS011;12840;48.144;17.136;2023-03-02T12:51:11;20.17;;;10.70;;
24735;SDS011;12840;48.144;17.136;2023-03-02T12:53:39;17.07;;;10.43;;
24735;SDS011;12840;48.144;17.136;2023-03-02T12:56:07;19.23;;;11.53;;
24735;SDS011;12840;48.144;17.136;2023-03-02T12:58:34;17.40;;;11.00;;
24735;SDS011;12840;48.144;17.136;2023-03-02T13:01:02;16.67;;;10.40;;
24735;SDS011;12840;48.144;17.136;2023-03-02T13:03:30;17.70;;;10.93;;
24735;SDS011;12840;48.144;17.136;2023-03-02T13:06:01;20.27;;;11.50;;
24735;SDS011;12840;48.144;17.136;2023-03-02T13:08:31;18.13;;;10.77;;
24735;SDS011;12840;48.144;17.136;2023-03-02T13:10:59;18.87;;;11.57;;
24735;SDS011;12840;48.144;17.136;2023-03-02T13:13:33;18.53;;;11.07;;
24735;SDS011;12840;48.144;17.136;2023-03-02T13:16:02;18.90;;;11.50;;
24735;SDS011;12840;48.144;17.136;2023-03-02T13:18:31;17.90;;;11.00;;
24735;SDS011;12840;48.144;17.136;2023-03-02T13:20:59;17.40;;;10.40;;
24735;SDS011;12840;48.144;17.136;2023-03-02T13:23:28;17.40;;;10.53;;
24735;SDS011;12840;48.144;17.136;2023-03-02T13:25:58;17.30;;;10.80;;
24735;SDS011;12840;48.144;17.136;2023-03-02T13:28:26;17.30;;;11.03;;
24735;SDS011;12840;48.144;17.136;2023-03-02T13:30:55;19.73;;;10.73;;
24735;SDS011;12840;48.144;17.136;2023-03-02T13:33:23;18.37;;;11.07;;
24735;SDS011;12840;48.144;17.136;2023-03-02T13:35:51;19.97;;;11.37;;
24735;SDS011;12840;48.144;17.136;2023-03-02T13:38:20;23.07;;;10.73;;
24735;SDS011;12840;48.144;17.136;2023-03-02T13:40:49;20.13;;;11.27;;
24735;SDS011;12840;48.144;17.136;2023-03-02T13:43:22;19.23;;;11.63;;
24735;SDS011;12840;48.144;17.136;2023-03-02T13:45:50;16.43;;;9.97;;
24735;SDS011;12840;48.144;17.136;2023-03-02T13:48:18;17.87;;;10.77;;
24735;SDS011;12840;48.144;17.136;2023-03-02T13:50:52;16.47;;;11.10;;
24735;SDS011;12840;48.144;17.136;2023-03-02T13:53:20;21.03;;;11.27;;
24735;SDS011;12840;48.144;17.136;2023-03-02T13:55:48;19.30;;;10.77;;
24735;SDS011;12840;48.144;17.136;2023-03-02T13:58:16;18.60;;;11.33;;
24735;SDS011;12840;48.144;17.136;2023-03-02T14:00:46;20.97;;;10.70;;
24735;SDS011;12840;48.144;17.136;2023-03-02T14:03:19;16.47;;;9.73;;
24735;SDS011;12840;48.144;17.136;2023-03-02T14:05:47;18.33;;;11.10;;
24735;SDS011;12840;48.144;17.136;2023-03-02T14:08:15;18.60;;;10.20;;
24735;SDS011;12840;48.144;17.136;2023-03-02T14:10:43;17.13;;;10.70;;
24735;SDS011;12840;48.144;17.136;2023-03-02T14:13:12;19.10;;;10.30;;
24735;SDS011;12840;48.144;17.136;2023-03-02T14:15:41;22.17;;;11.20;;
24735;SDS011;12840;48.144;17.136;2023-03-02T14:18:15;20.03;;;11.13;;
24735;SDS011;12840;48.144;17.136;2023-03-02T14:20:47;21.20;;;11.20;;
24735;SDS011;12840;48.144;17.136;2023-03-02T14:23:14;29.40;;;10.67;;